Terminal Aerodrome Forecast
Issued by NWS

Home | Current Version | Previous Version | Text Only | Print | Product List | Glossary On
Versions: 1 2 3 4 5 6 7 8 9 10 11 12 13
000
FTUS45 KREV 222323
TAFCXP
TAF
KCXP 222323Z 2300/2324 32011G19KT P6SM VCSH SCT030 BKN080
     FM230300 30007KT P6SM SCT070 BKN200
     FM230700 VRB04KT P6SM FEW070 SCT200
     FM231900 29008KT P6SM FEW080 SCT200=

USA.gov is the U.S. government's official web portal to all federal, state and local government web resources and services.